sensor_id;sensor_type;location;lat;lon;timestamp;P1;durP1;ratioP1;P2;durP2;ratioP2
66112;SDS011;52893;52.870;5.822;2023-02-28T00:00:50;10.13;;;3.30;;
66112;SDS011;52893;52.870;5.822;2023-02-28T00:03:19;12.95;;;3.15;;
66112;SDS011;52893;52.870;5.822;2023-02-28T00:05:46;7.90;;;3.10;;
66112;SDS011;52893;52.870;5.822;2023-02-28T00:08:13;7.75;;;2.95;;
66112;SDS011;52893;52.870;5.822;2023-02-28T00:10:41;8.68;;;3.22;;
66112;SDS011;52893;52.870;5.822;2023-02-28T00:13:08;10.20;;;3.22;;
66112;SDS011;52893;52.870;5.822;2023-02-28T00:15:35;16.20;;;3.55;;
66112;SDS011;52893;52.870;5.822;2023-02-28T00:18:02;8.75;;;3.10;;
66112;SDS011;52893;52.870;5.822;2023-02-28T00:20:31;8.25;;;3.38;;
66112;SDS011;52893;52.870;5.822;2023-02-28T00:22:58;12.18;;;3.90;;
66112;SDS011;52893;52.870;5.822;2023-02-28T00:25:25;15.73;;;3.88;;
66112;SDS011;52893;52.870;5.822;2023-02-28T00:27:52;11.88;;;3.25;;
66112;SDS011;52893;52.870;5.822;2023-02-28T00:30:20;9.38;;;3.63;;
66112;SDS011;52893;52.870;5.822;2023-02-28T00:32:49;8.55;;;4.20;;
66112;SDS011;52893;52.870;5.822;2023-02-28T00:35:17;7.97;;;4.85;;
66112;SDS011;52893;52.870;5.822;2023-02-28T00:37:47;6.53;;;3.28;;
66112;SDS011;52893;52.870;5.822;2023-02-28T00:40:14;9.27;;;3.60;;
66112;SDS011;52893;52.870;5.822;2023-02-28T00:42:42;12.65;;;3.40;;
66112;SDS011;52893;52.870;5.822;2023-02-28T00:45:09;14.32;;;3.65;;
66112;SDS011;52893;52.870;5.822;2023-02-28T00:47:37;13.40;;;4.32;;
66112;SDS011;52893;52.870;5.822;2023-02-28T00:50:05;6.75;;;3.28;;
66112;SDS011;52893;52.870;5.822;2023-02-28T00:52:33;9.05;;;3.78;;
66112;SDS011;52893;52.870;5.822;2023-02-28T00:55:01;9.68;;;4.03;;
66112;SDS011;52893;52.870;5.822;2023-02-28T00:57:28;10.80;;;4.13;;
66112;SDS011;52893;52.870;5.822;2023-02-28T00:59:56;10.25;;;3.60;;
66112;SDS011;52893;52.870;5.822;2023-02-28T01:02:23;6.55;;;3.30;;
66112;SDS011;52893;52.870;5.822;2023-02-28T01:04:52;11.63;;;3.80;;
66112;SDS011;52893;52.870;5.822;2023-02-28T01:07:19;11.13;;;3.80;;
66112;SDS011;52893;52.870;5.822;2023-02-28T01:09:46;13.70;;;3.75;;
66112;SDS011;52893;52.870;5.822;2023-02-28T01:12:15;11.95;;;4.35;;
66112;SDS011;52893;52.870;5.822;2023-02-28T01:14:42;13.07;;;4.00;;
66112;SDS011;52893;52.870;5.822;2023-02-28T01:17:09;18.23;;;4.30;;
66112;SDS011;52893;52.870;5.822;2023-02-28T01:19:36;17.10;;;4.10;;
66112;SDS011;52893;52.870;5.822;2023-02-28T01:22:04;16.23;;;3.65;;
66112;SDS011;52893;52.870;5.822;2023-02-28T01:24:34;9.75;;;4.03;;
66112;SDS011;52893;52.870;5.822;2023-02-28T01:27:01;12.98;;;3.63;;
66112;SDS011;52893;52.870;5.822;2023-02-28T01:29:30;9.27;;;3.50;;
66112;SDS011;52893;52.870;5.822;2023-02-28T01:31:57;12.77;;;4.10;;
66112;SDS011;52893;52.870;5.822;2023-02-28T01:34:25;6.93;;;3.30;;
66112;SDS011;52893;52.870;5.822;2023-02-28T01:36:53;5.70;;;3.03;;
66112;SDS011;52893;52.870;5.822;2023-02-28T01:39:20;10.48;;;3.42;;
66112;SDS011;52893;52.870;5.822;2023-02-28T01:41:49;11.32;;;3.15;;
66112;SDS011;52893;52.870;5.822;2023-02-28T01:47:27;9.02;;;3.45;;
66112;SDS011;52893;52.870;5.822;2023-02-28T01:49:57;8.88;;;3.20;;
66112;SDS011;52893;52.870;5.822;2023-02-28T01:52:25;9.23;;;2.92;;
66112;SDS011;52893;52.870;5.822;2023-02-28T01:54:54;7.07;;;3.15;;
66112;SDS011;52893;52.870;5.822;2023-02-28T01:57:24;14.63;;;3.58;;
66112;SDS011;52893;52.870;5.822;2023-02-28T01:59:58;13.13;;;3.20;;
66112;SDS011;52893;52.870;5.822;2023-02-28T02:02:38;11.10;;;3.25;;
66112;SDS011;52893;52.870;5.822;2023-02-28T02:05:09;9.38;;;3.20;;
66112;SDS011;52893;52.870;5.822;2023-02-28T02:07:39;14.57;;;3.35;;
66112;SDS011;52893;52.870;5.822;2023-02-28T02:10:11;9.35;;;2.78;;
66112;SDS011;52893;52.870;5.822;2023-02-28T02:12:52;6.50;;;2.97;;
66112;SDS011;52893;52.870;5.822;2023-02-28T02:15:32;7.70;;;3.67;;
66112;SDS011;52893;52.870;5.822;2023-02-28T02:18:03;7.72;;;3.05;;
66112;SDS011;52893;52.870;5.822;2023-02-28T02:20:45;10.23;;;3.00;;
66112;SDS011;52893;52.870;5.822;2023-02-28T02:23:44;12.70;;;3.42;;
66112;SDS011;52893;52.870;5.822;2023-02-28T02:26:33;13.10;;;2.72;;
66112;SDS011;52893;52.870;5.822;2023-02-28T02:32:30;16.77;;;3.65;;
66112;SDS011;52893;52.870;5.822;2023-02-28T02:35:26;8.02;;;2.97;;
66112;SDS011;52893;52.870;5.822;2023-02-28T02:37:59;7.28;;;3.20;;
66112;SDS011;52893;52.870;5.822;2023-02-28T02:40:37;8.07;;;3.15;;
66112;SDS011;52893;52.870;5.822;2023-02-28T02:43:11;8.20;;;3.53;;
66112;SDS011;52893;52.870;5.822;2023-02-28T02:45:43;11.43;;;3.88;;
66112;SDS011;52893;52.870;5.822;2023-02-28T02:48:16;11.35;;;3.05;;
66112;SDS011;52893;52.870;5.822;2023-02-28T02:50:48;8.30;;;3.17;;
66112;SDS011;52893;52.870;5.822;2023-02-28T02:53:19;13.55;;;3.10;;
66112;SDS011;52893;52.870;5.822;2023-02-28T02:55:51;11.85;;;3.72;;
66112;SDS011;52893;52.870;5.822;2023-02-28T02:58:22;12.85;;;3.97;;
66112;SDS011;52893;52.870;5.822;2023-02-28T03:00:52;11.68;;;3.60;;
66112;SDS011;52893;52.870;5.822;2023-02-28T03:03:21;6.85;;;3.70;;
66112;SDS011;52893;52.870;5.822;2023-02-28T03:05:56;10.52;;;3.58;;
66112;SDS011;52893;52.870;5.822;2023-02-28T03:08:25;16.75;;;3.95;;
66112;SDS011;52893;52.870;5.822;2023-02-28T03:10:55;13.63;;;4.40;;
66112;SDS011;52893;52.870;5.822;2023-02-28T03:13:43;14.90;;;4.07;;
66112;SDS011;52893;52.870;5.822;2023-02-28T03:18:58;9.10;;;2.95;;
66112;SDS011;52893;52.870;5.822;2023-02-28T03:21:36;5.22;;;2.90;;
66112;SDS011;52893;52.870;5.822;2023-02-28T03:24:07;11.45;;;2.90;;
66112;SDS011;52893;52.870;5.822;2023-02-28T03:26:41;7.90;;;2.72;;
66112;SDS011;52893;52.870;5.822;2023-02-28T03:29:12;11.63;;;3.17;;
66112;SDS011;52893;52.870;5.822;2023-02-28T03:31:44;11.82;;;3.05;;
66112;SDS011;52893;52.870;5.822;2023-02-28T03:34:19;11.25;;;3.00;;
66112;SDS011;52893;52.870;5.822;2023-02-28T03:36:52;8.43;;;3.10;;
66112;SDS011;52893;52.870;5.822;2023-02-28T03:39:22;6.40;;;2.85;;
66112;SDS011;52893;52.870;5.822;2023-02-28T03:41:56;10.10;;;3.03;;
66112;SDS011;52893;52.870;5.822;2023-02-28T03:44:28;7.00;;;3.20;;
66112;SDS011;52893;52.870;5.822;2023-02-28T03:47:00;6.97;;;2.75;;
66112;SDS011;52893;52.870;5.822;2023-02-28T03:49:30;8.30;;;3.00;;
66112;SDS011;52893;52.870;5.822;2023-02-28T03:52:03;7.68;;;2.92;;
66112;SDS011;52893;52.870;5.822;2023-02-28T03:54:35;10.73;;;3.80;;
66112;SDS011;52893;52.870;5.822;2023-02-28T03:59:39;5.70;;;3.00;;
66112;SDS011;52893;52.870;5.822;2023-02-28T04:02:10;6.03;;;3.20;;
66112;SDS011;52893;52.870;5.822;2023-02-28T04:04:38;11.68;;;3.90;;
66112;SDS011;52893;52.870;5.822;2023-02-28T04:07:15;8.95;;;3.67;;
66112;SDS011;52893;52.870;5.822;2023-02-28T04:09:42;4.68;;;3.10;;
66112;SDS011;52893;52.870;5.822;2023-02-28T04:12:10;12.65;;;3.28;;
66112;SDS011;52893;52.870;5.822;2023-02-28T04:14:37;11.27;;;3.35;;
66112;SDS011;52893;52.870;5.822;2023-02-28T04:17:05;6.32;;;2.33;;
66112;SDS011;52893;52.870;5.822;2023-02-28T04:19:32;4.43;;;2.83;;
66112;SDS011;52893;52.870;5.822;2023-02-28T04:21:59;4.30;;;2.45;;
66112;SDS011;52893;52.870;5.822;2023-02-28T04:24:28;2.63;;;1.90;;
66112;SDS011;52893;52.870;5.822;2023-02-28T04:26:55;5.93;;;2.28;;
66112;SDS011;52893;52.870;5.822;2023-02-28T04:29:25;3.45;;;1.73;;
66112;SDS011;52893;52.870;5.822;2023-02-28T04:31:53;3.15;;;2.25;;
66112;SDS011;52893;52.870;5.822;2023-02-28T04:34:23;5.88;;;2.50;;
66112;SDS011;52893;52.870;5.822;2023-02-28T04:36:51;3.65;;;2.45;;
66112;SDS011;52893;52.870;5.822;2023-02-28T04:39:20;5.25;;;1.67;;
66112;SDS011;52893;52.870;5.822;2023-02-28T04:41:48;3.83;;;1.95;;
66112;SDS011;52893;52.870;5.822;2023-02-28T04:44:16;4.13;;;1.80;;
66112;SDS011;52893;52.870;5.822;2023-02-28T04:46:43;3.00;;;1.65;;
66112;SDS011;52893;52.870;5.822;2023-02-28T04:49:11;1.80;;;1.00;;
66112;SDS011;52893;52.870;5.822;2023-02-28T04:51:38;3.55;;;2.53;;
66112;SDS011;52893;52.870;5.822;2023-02-28T04:54:06;1.67;;;1.33;;
66112;SDS011;52893;52.870;5.822;2023-02-28T04:56:34;4.68;;;1.90;;
66112;SDS011;52893;52.870;5.822;2023-02-28T04:59:02;3.92;;;2.08;;
66112;SDS011;52893;52.870;5.822;2023-02-28T05:01:30;3.13;;;2.35;;
66112;SDS011;52893;52.870;5.822;2023-02-28T05:04:00;8.60;;;3.22;;
66112;SDS011;52893;52.870;5.822;2023-02-28T05:06:29;3.53;;;2.70;;
66112;SDS011;52893;52.870;5.822;2023-02-28T05:08:57;3.58;;;2.15;;
66112;SDS011;52893;52.870;5.822;2023-02-28T05:11:25;6.75;;;3.38;;
66112;SDS011;52893;52.870;5.822;2023-02-28T05:13:54;8.50;;;3.30;;
66112;SDS011;52893;52.870;5.822;2023-02-28T05:16:23;6.85;;;3.42;;
66112;SDS011;52893;52.870;5.822;2023-02-28T05:18:50;4.88;;;2.88;;
66112;SDS011;52893;52.870;5.822;2023-02-28T05:21:23;7.65;;;4.10;;
66112;SDS011;52893;52.870;5.822;2023-02-28T05:23:52;8.10;;;3.60;;
66112;SDS011;52893;52.870;5.822;2023-02-28T05:26:20;5.55;;;2.55;;
66112;SDS011;52893;52.870;5.822;2023-02-28T05:28:47;8.65;;;3.40;;
66112;SDS011;52893;52.870;5.822;2023-02-28T05:31:15;4.25;;;2.70;;
66112;SDS011;52893;52.870;5.822;2023-02-28T05:33:44;7.05;;;3.13;;
66112;SDS011;52893;52.870;5.822;2023-02-28T05:36:11;8.52;;;3.47;;
66112;SDS011;52893;52.870;5.822;2023-02-28T05:38:38;4.72;;;2.45;;
66112;SDS011;52893;52.870;5.822;2023-02-28T05:41:06;6.88;;;2.28;;
66112;SDS011;52893;52.870;5.822;2023-02-28T05:43:34;4.57;;;2.60;;
66112;SDS011;52893;52.870;5.822;2023-02-28T05:46:03;3.15;;;2.17;;
66112;SDS011;52893;52.870;5.822;2023-02-28T05:48:31;11.35;;;5.68;;
66112;SDS011;52893;52.870;5.822;2023-02-28T05:51:00;9.93;;;3.67;;
66112;SDS011;52893;52.870;5.822;2023-02-28T05:53:28;6.00;;;2.65;;
66112;SDS011;52893;52.870;5.822;2023-02-28T05:55:57;10.55;;;4.63;;
66112;SDS011;52893;52.870;5.822;2023-02-28T05:58:25;8.75;;;4.88;;
66112;SDS011;52893;52.870;5.822;2023-02-28T06:00:56;9.57;;;4.50;;
66112;SDS011;52893;52.870;5.822;2023-02-28T06:03:23;11.98;;;4.82;;
66112;SDS011;52893;52.870;5.822;2023-02-28T06:05:51;11.98;;;3.85;;
66112;SDS011;52893;52.870;5.822;2023-02-28T06:08:19;13.80;;;5.15;;
66112;SDS011;52893;52.870;5.822;2023-02-28T06:10:47;10.98;;;4.22;;
66112;SDS011;52893;52.870;5.822;2023-02-28T06:13:14;10.60;;;6.15;;
66112;SDS011;52893;52.870;5.822;2023-02-28T06:15:41;11.07;;;4.85;;
66112;SDS011;52893;52.870;5.822;2023-02-28T06:18:09;11.98;;;5.75;;
66112;SDS011;52893;52.870;5.822;2023-02-28T06:20:36;9.55;;;5.30;;
66112;SDS011;52893;52.870;5.822;2023-02-28T06:23:04;10.73;;;6.00;;
66112;SDS011;52893;52.870;5.822;2023-02-28T06:25:32;10.52;;;6.15;;
66112;SDS011;52893;52.870;5.822;2023-02-28T06:27:59;7.93;;;3.95;;
66112;SDS011;52893;52.870;5.822;2023-02-28T06:30:27;8.07;;;4.65;;
66112;SDS011;52893;52.870;5.822;2023-02-28T06:32:56;13.90;;;7.55;;
66112;SDS011;52893;52.870;5.822;2023-02-28T06:35:23;12.38;;;6.93;;
66112;SDS011;52893;52.870;5.822;2023-02-28T06:37:51;12.75;;;7.93;;
66112;SDS011;52893;52.870;5.822;2023-02-28T06:40:18;12.60;;;7.68;;
66112;SDS011;52893;52.870;5.822;2023-02-28T06:42:47;9.38;;;5.38;;
66112;SDS011;52893;52.870;5.822;2023-02-28T06:45:14;12.40;;;6.65;;
66112;SDS011;52893;52.870;5.822;2023-02-28T06:47:41;6.28;;;3.67;;
66112;SDS011;52893;52.870;5.822;2023-02-28T06:50:09;13.43;;;7.32;;
66112;SDS011;52893;52.870;5.822;2023-02-28T06:52:38;14.93;;;6.00;;
66112;SDS011;52893;52.870;5.822;2023-02-28T06:55:06;18.10;;;8.65;;
66112;SDS011;52893;52.870;5.822;2023-02-28T06:57:34;16.35;;;8.00;;
66112;SDS011;52893;52.870;5.822;2023-02-28T07:00:05;17.85;;;8.88;;
66112;SDS011;52893;52.870;5.822;2023-02-28T07:02:34;21.85;;;9.63;;
66112;SDS011;52893;52.870;5.822;2023-02-28T07:05:02;20.23;;;10.02;;
66112;SDS011;52893;52.870;5.822;2023-02-28T07:07:29;21.20;;;9.60;;
66112;SDS011;52893;52.870;5.822;2023-02-28T07:09:58;16.58;;;9.63;;
66112;SDS011;52893;52.870;5.822;2023-02-28T07:12:25;22.00;;;10.38;;
66112;SDS011;52893;52.870;5.822;2023-02-28T07:14:52;21.48;;;10.35;;
66112;SDS011;52893;52.870;5.822;2023-02-28T07:17:21;25.95;;;10.27;;
66112;SDS011;52893;52.870;5.822;2023-02-28T07:19:48;23.73;;;9.82;;
66112;SDS011;52893;52.870;5.822;2023-02-28T07:22:15;13.45;;;7.32;;
66112;SDS011;52893;52.870;5.822;2023-02-28T07:24:42;17.13;;;8.82;;
66112;SDS011;52893;52.870;5.822;2023-02-28T07:27:10;11.20;;;5.97;;
66112;SDS011;52893;52.870;5.822;2023-02-28T07:29:37;14.88;;;8.48;;
66112;SDS011;52893;52.870;5.822;2023-02-28T07:32:04;17.50;;;8.77;;
66112;SDS011;52893;52.870;5.822;2023-02-28T07:34:33;17.55;;;7.70;;
66112;SDS011;52893;52.870;5.822;2023-02-28T07:37:00;15.02;;;8.15;;
66112;SDS011;52893;52.870;5.822;2023-02-28T07:39:29;17.88;;;8.52;;
66112;SDS011;52893;52.870;5.822;2023-02-28T07:41:56;15.68;;;7.90;;
66112;SDS011;52893;52.870;5.822;2023-02-28T07:44:25;15.00;;;6.32;;
66112;SDS011;52893;52.870;5.822;2023-02-28T07:46:52;6.50;;;5.00;;
66112;SDS011;52893;52.870;5.822;2023-02-28T07:49:20;9.05;;;5.35;;
66112;SDS011;52893;52.870;5.822;2023-02-28T07:51:48;11.23;;;6.18;;
66112;SDS011;52893;52.870;5.822;2023-02-28T07:54:15;10.43;;;5.75;;
66112;SDS011;52893;52.870;5.822;2023-02-28T07:56:43;11.18;;;6.82;;
66112;SDS011;52893;52.870;5.822;2023-02-28T07:59:10;13.73;;;6.72;;
66112;SDS011;52893;52.870;5.822;2023-02-28T08:01:37;14.25;;;7.43;;
66112;SDS011;52893;52.870;5.822;2023-02-28T08:04:04;9.85;;;6.30;;
66112;SDS011;52893;52.870;5.822;2023-02-28T08:06:31;13.90;;;7.05;;
66112;SDS011;52893;52.870;5.822;2023-02-28T08:09:00;10.82;;;6.28;;
66112;SDS011;52893;52.870;5.822;2023-02-28T08:11:27;10.85;;;5.78;;
66112;SDS011;52893;52.870;5.822;2023-02-28T08:13:54;9.43;;;6.50;;
66112;SDS011;52893;52.870;5.822;2023-02-28T08:16:22;10.88;;;5.78;;
66112;SDS011;52893;52.870;5.822;2023-02-28T08:18:50;11.20;;;5.82;;
66112;SDS011;52893;52.870;5.822;2023-02-28T08:21:18;13.55;;;6.05;;
66112;SDS011;52893;52.870;5.822;2023-02-28T08:23:46;11.82;;;7.00;;
66112;SDS011;52893;52.870;5.822;2023-02-28T08:26:15;12.43;;;7.38;;
66112;SDS011;52893;52.870;5.822;2023-02-28T08:28:42;9.88;;;6.13;;
66112;SDS011;52893;52.870;5.822;2023-02-28T08:31:11;15.43;;;8.38;;
66112;SDS011;52893;52.870;5.822;2023-02-28T08:33:40;12.88;;;6.80;;
66112;SDS011;52893;52.870;5.822;2023-02-28T08:36:10;13.23;;;7.30;;
66112;SDS011;52893;52.870;5.822;2023-02-28T08:38:38;13.52;;;8.20;;
66112;SDS011;52893;52.870;5.822;2023-02-28T08:41:05;17.23;;;8.27;;
66112;SDS011;52893;52.870;5.822;2023-02-28T08:43:36;17.08;;;9.75;;
66112;SDS011;52893;52.870;5.822;2023-02-28T08:46:03;19.88;;;9.60;;
66112;SDS011;52893;52.870;5.822;2023-02-28T08:48:31;19.75;;;10.70;;
66112;SDS011;52893;52.870;5.822;2023-02-28T08:51:00;26.63;;;11.35;;
66112;SDS011;52893;52.870;5.822;2023-02-28T08:53:29;32.00;;;15.93;;
66112;SDS011;52893;52.870;5.822;2023-02-28T08:55:57;29.83;;;14.25;;
66112;SDS011;52893;52.870;5.822;2023-02-28T08:58:25;36.58;;;15.93;;
66112;SDS011;52893;52.870;5.822;2023-02-28T09:00:54;37.28;;;16.30;;
66112;SDS011;52893;52.870;5.822;2023-02-28T09:03:21;33.90;;;14.18;;
66112;SDS011;52893;52.870;5.822;2023-02-28T09:05:53;27.90;;;14.07;;
66112;SDS011;52893;52.870;5.822;2023-02-28T09:08:21;33.05;;;15.60;;
66112;SDS011;52893;52.870;5.822;2023-02-28T09:10:48;29.70;;;13.50;;
66112;SDS011;52893;52.870;5.822;2023-02-28T09:13:15;34.25;;;15.70;;
66112;SDS011;52893;52.870;5.822;2023-02-28T09:15:43;20.98;;;10.88;;
66112;SDS011;52893;52.870;5.822;2023-02-28T09:18:12;24.55;;;11.25;;
66112;SDS011;52893;52.870;5.822;2023-02-28T09:20:40;22.08;;;10.80;;
66112;SDS011;52893;52.870;5.822;2023-02-28T09:23:08;22.23;;;11.70;;
66112;SDS011;52893;52.870;5.822;2023-02-28T09:25:36;18.65;;;9.55;;
66112;SDS011;52893;52.870;5.822;2023-02-28T09:28:04;18.33;;;9.32;;
66112;SDS011;52893;52.870;5.822;2023-02-28T09:30:31;19.15;;;9.55;;
66112;SDS011;52893;52.870;5.822;2023-02-28T09:32:58;18.77;;;9.65;;
66112;SDS011;52893;52.870;5.822;2023-02-28T09:35:27;17.08;;;9.23;;
66112;SDS011;52893;52.870;5.822;2023-02-28T09:37:54;16.88;;;9.43;;
66112;SDS011;52893;52.870;5.822;2023-02-28T09:40:22;14.77;;;8.70;;
66112;SDS011;52893;52.870;5.822;2023-02-28T09:42:52;15.40;;;8.75;;
66112;SDS011;52893;52.870;5.822;2023-02-28T09:45:22;15.43;;;8.38;;
66112;SDS011;52893;52.870;5.822;2023-02-28T09:47:51;11.40;;;7.75;;
66112;SDS011;52893;52.870;5.822;2023-02-28T09:50:23;17.08;;;9.10;;
66112;SDS011;52893;52.870;5.822;2023-02-28T09:53:01;19.52;;;9.88;;
66112;SDS011;52893;52.870;5.822;2023-02-28T09:55:33;15.65;;;9.48;;
66112;SDS011;52893;52.870;5.822;2023-02-28T09:58:04;13.23;;;8.85;;
66112;SDS011;52893;52.870;5.822;2023-02-28T10:00:33;19.85;;;9.23;;
66112;SDS011;52893;52.870;5.822;2023-02-28T10:03:09;17.13;;;8.23;;
66112;SDS011;52893;52.870;5.822;2023-02-28T10:05:56;14.77;;;7.88;;
66112;SDS011;52893;52.870;5.822;2023-02-28T10:08:30;11.77;;;7.63;;
66112;SDS011;52893;52.870;5.822;2023-02-28T10:11:01;16.25;;;8.75;;
66112;SDS011;52893;52.870;5.822;2023-02-28T10:13:32;15.02;;;8.93;;
66112;SDS011;52893;52.870;5.822;2023-02-28T10:16:02;14.95;;;8.55;;
66112;SDS011;52893;52.870;5.822;2023-02-28T10:18:38;12.88;;;7.80;;
66112;SDS011;52893;52.870;5.822;2023-02-28T10:21:15;14.27;;;7.68;;
66112;SDS011;52893;52.870;5.822;2023-02-28T10:23:46;11.93;;;6.28;;
66112;SDS011;52893;52.870;5.822;2023-02-28T10:26:15;12.23;;;5.95;;
66112;SDS011;52893;52.870;5.822;2023-02-28T10:28:44;12.30;;;6.90;;
66112;SDS011;52893;52.870;5.822;2023-02-28T10:31:15;11.75;;;5.10;;
66112;SDS011;52893;52.870;5.822;2023-02-28T10:33:45;14.90;;;7.10;;
66112;SDS011;52893;52.870;5.822;2023-02-28T10:36:13;17.13;;;6.78;;
66112;SDS011;52893;52.870;5.822;2023-02-28T10:38:44;13.82;;;5.43;;
66112;SDS011;52893;52.870;5.822;2023-02-28T10:41:13;12.63;;;7.03;;
66112;SDS011;52893;52.870;5.822;2023-02-28T10:43:42;15.05;;;6.97;;
66112;SDS011;52893;52.870;5.822;2023-02-28T10:46:12;18.73;;;8.55;;
66112;SDS011;52893;52.870;5.822;2023-02-28T10:48:59;29.33;;;12.02;;
66112;SDS011;52893;52.870;5.822;2023-02-28T10:51:36;24.48;;;10.05;;
66112;SDS011;52893;52.870;5.822;2023-02-28T10:54:04;23.05;;;7.80;;
66112;SDS011;52893;52.870;5.822;2023-02-28T10:56:34;18.80;;;7.28;;
66112;SDS011;52893;52.870;5.822;2023-02-28T10:59:02;18.92;;;9.20;;
66112;SDS011;52893;52.870;5.822;2023-02-28T11:01:48;19.15;;;7.82;;
66112;SDS011;52893;52.870;5.822;2023-02-28T11:04:18;17.33;;;7.55;;
66112;SDS011;52893;52.870;5.822;2023-02-28T11:07:00;18.02;;;7.22;;
66112;SDS011;52893;52.870;5.822;2023-02-28T11:09:30;9.98;;;5.18;;
66112;SDS011;52893;52.870;5.822;2023-02-28T11:12:00;11.20;;;5.85;;
66112;SDS011;52893;52.870;5.822;2023-02-28T11:14:29;11.23;;;4.10;;
66112;SDS011;52893;52.870;5.822;2023-02-28T11:17:01;9.00;;;4.20;;
66112;SDS011;52893;52.870;5.822;2023-02-28T11:19:43;8.25;;;3.90;;
66112;SDS011;52893;52.870;5.822;2023-02-28T11:22:17;7.75;;;3.50;;
66112;SDS011;52893;52.870;5.822;2023-02-28T11:24:47;5.40;;;2.75;;
66112;SDS011;52893;52.870;5.822;2023-02-28T11:27:40;16.80;;;6.28;;
66112;SDS011;52893;52.870;5.822;2023-02-28T11:30:32;17.92;;;4.72;;
66112;SDS011;52893;52.870;5.822;2023-02-28T11:33:01;4.50;;;2.67;;
66112;SDS011;52893;52.870;5.822;2023-02-28T11:35:45;9.00;;;3.60;;
66112;SDS011;52893;52.870;5.822;2023-02-28T11:38:14;8.20;;;3.70;;
66112;SDS011;52893;52.870;5.822;2023-02-28T11:40:43;6.38;;;3.30;;
66112;SDS011;52893;52.870;5.822;2023-02-28T11:43:22;8.48;;;3.90;;
66112;SDS011;52893;52.870;5.822;2023-02-28T11:46:00;10.80;;;4.78;;
66112;SDS011;52893;52.870;5.822;2023-02-28T11:48:37;10.23;;;4.80;;
66112;SDS011;52893;52.870;5.822;2023-02-28T11:51:15;13.57;;;4.85;;
66112;SDS011;52893;52.870;5.822;2023-02-28T11:53:55;11.68;;;4.80;;
66112;SDS011;52893;52.870;5.822;2023-02-28T11:56:31;8.30;;;4.22;;
66112;SDS011;52893;52.870;5.822;2023-02-28T11:59:13;10.85;;;4.85;;
66112;SDS011;52893;52.870;5.822;2023-02-28T12:02:00;15.07;;;5.57;;
66112;SDS011;52893;52.870;5.822;2023-02-28T12:04:45;17.02;;;5.30;;
66112;SDS011;52893;52.870;5.822;2023-02-28T12:07:23;10.80;;;4.82;;
66112;SDS011;52893;52.870;5.822;2023-02-28T12:09:58;15.10;;;5.35;;
66112;SDS011;52893;52.870;5.822;2023-02-28T12:12:36;11.77;;;5.18;;
66112;SDS011;52893;52.870;5.822;2023-02-28T12:15:16;8.65;;;3.42;;
66112;SDS011;52893;52.870;5.822;2023-02-28T12:18:13;10.30;;;4.28;;
66112;SDS011;52893;52.870;5.822;2023-02-28T12:20:54;8.25;;;3.72;;
66112;SDS011;52893;52.870;5.822;2023-02-28T12:23:36;9.93;;;4.07;;
66112;SDS011;52893;52.870;5.822;2023-02-28T12:26:18;8.23;;;3.80;;
66112;SDS011;52893;52.870;5.822;2023-02-28T12:28:52;6.68;;;3.47;;
66112;SDS011;52893;52.870;5.822;2023-02-28T12:31:21;4.95;;;2.42;;
66112;SDS011;52893;52.870;5.822;2023-02-28T12:33:53;5.60;;;2.72;;
66112;SDS011;52893;52.870;5.822;2023-02-28T12:36:27;6.20;;;2.83;;
66112;SDS011;52893;52.870;5.822;2023-02-28T12:38:56;5.28;;;2.30;;
66112;SDS011;52893;52.870;5.822;2023-02-28T12:41:31;6.20;;;2.20;;
66112;SDS011;52893;52.870;5.822;2023-02-28T12:44:03;9.88;;;3.78;;
66112;SDS011;52893;52.870;5.822;2023-02-28T12:46:36;8.07;;;3.45;;
66112;SDS011;52893;52.870;5.822;2023-02-28T12:49:08;7.73;;;3.23;;
66112;SDS011;52893;52.870;5.822;2023-02-28T12:51:39;7.05;;;3.33;;
66112;SDS011;52893;52.870;5.822;2023-02-28T12:54:12;10.68;;;3.65;;
66112;SDS011;52893;52.870;5.822;2023-02-28T12:56:49;6.40;;;3.00;;
66112;SDS011;52893;52.870;5.822;2023-02-28T12:59:25;6.57;;;2.97;;
66112;SDS011;52893;52.870;5.822;2023-02-28T13:02:09;8.00;;;2.97;;
66112;SDS011;52893;52.870;5.822;2023-02-28T13:04:55;6.60;;;3.38;;
66112;SDS011;52893;52.870;5.822;2023-02-28T13:07:50;5.63;;;3.10;;
66112;SDS011;52893;52.870;5.822;2023-02-28T13:10:40;4.50;;;3.05;;
66112;SDS011;52893;52.870;5.822;2023-02-28T13:13:15;7.22;;;2.70;;
66112;SDS011;52893;52.870;5.822;2023-02-28T13:15:57;4.10;;;2.33;;
66112;SDS011;52893;52.870;5.822;2023-02-28T13:18:27;4.22;;;2.30;;
66112;SDS011;52893;52.870;5.822;2023-02-28T13:20:57;7.70;;;2.53;;
66112;SDS011;52893;52.870;5.822;2023-02-28T13:23:37;7.60;;;3.13;;
66112;SDS011;52893;52.870;5.822;2023-02-28T13:26:06;4.00;;;3.03;;
66112;SDS011;52893;52.870;5.822;2023-02-28T13:31:31;4.63;;;2.70;;
66112;SDS011;52893;52.870;5.822;2023-02-28T13:34:12;5.57;;;2.85;;
66112;SDS011;52893;52.870;5.822;2023-02-28T13:36:41;3.92;;;2.40;;
66112;SDS011;52893;52.870;5.822;2023-02-28T13:42:32;4.38;;;2.47;;
66112;SDS011;52893;52.870;5.822;2023-02-28T13:45:24;3.78;;;2.30;;
66112;SDS011;52893;52.870;5.822;2023-02-28T13:47:53;3.35;;;2.17;;
66112;SDS011;52893;52.870;5.822;2023-02-28T13:50:24;4.75;;;2.05;;
66112;SDS011;52893;52.870;5.822;2023-02-28T13:52:59;3.45;;;2.13;;
66112;SDS011;52893;52.870;5.822;2023-02-28T13:55:44;5.28;;;2.17;;
66112;SDS011;52893;52.870;5.822;2023-02-28T13:58:21;4.97;;;2.97;;
66112;SDS011;52893;52.870;5.822;2023-02-28T14:01:06;5.07;;;2.90;;
66112;SDS011;52893;52.870;5.822;2023-02-28T14:03:44;4.07;;;2.20;;
66112;SDS011;52893;52.870;5.822;2023-02-28T14:06:25;4.10;;;2.70;;
66112;SDS011;52893;52.870;5.822;2023-02-28T14:08:56;2.35;;;1.80;;
66112;SDS011;52893;52.870;5.822;2023-02-28T14:11:28;5.32;;;3.00;;
66112;SDS011;52893;52.870;5.822;2023-02-28T14:13:57;3.75;;;2.38;;
66112;SDS011;52893;52.870;5.822;2023-02-28T14:16:26;6.63;;;3.00;;
66112;SDS011;52893;52.870;5.822;2023-02-28T14:19:02;4.93;;;2.97;;
66112;SDS011;52893;52.870;5.822;2023-02-28T14:21:38;4.05;;;2.95;;
66112;SDS011;52893;52.870;5.822;2023-02-28T14:24:16;5.85;;;3.30;;
66112;SDS011;52893;52.870;5.822;2023-02-28T14:29:57;6.30;;;2.17;;
66112;SDS011;52893;52.870;5.822;2023-02-28T14:32:40;5.13;;;2.63;;
66112;SDS011;52893;52.870;5.822;2023-02-28T14:35:18;5.68;;;2.85;;
66112;SDS011;52893;52.870;5.822;2023-02-28T14:37:53;6.13;;;2.92;;
66112;SDS011;52893;52.870;5.822;2023-02-28T14:40:21;3.80;;;2.88;;
66112;SDS011;52893;52.870;5.822;2023-02-28T14:42:59;8.20;;;3.47;;
66112;SDS011;52893;52.870;5.822;2023-02-28T14:45:28;6.90;;;2.90;;
66112;SDS011;52893;52.870;5.822;2023-02-28T14:47:58;4.68;;;2.78;;
66112;SDS011;52893;52.870;5.822;2023-02-28T14:50:29;8.23;;;4.35;;
66112;SDS011;52893;52.870;5.822;2023-02-28T14:53:00;9.93;;;3.50;;
66112;SDS011;52893;52.870;5.822;2023-02-28T14:55:29;6.63;;;3.83;;
66112;SDS011;52893;52.870;5.822;2023-02-28T14:57:58;4.93;;;3.30;;
66112;SDS011;52893;52.870;5.822;2023-02-28T15:00:30;5.18;;;3.10;;
66112;SDS011;52893;52.870;5.822;2023-02-28T15:03:11;5.47;;;2.90;;
66112;SDS011;52893;52.870;5.822;2023-02-28T15:05:50;3.28;;;2.10;;
66112;SDS011;52893;52.870;5.822;2023-02-28T15:08:19;4.18;;;3.38;;
66112;SDS011;52893;52.870;5.822;2023-02-28T15:10:51;4.40;;;2.92;;
66112;SDS011;52893;52.870;5.822;2023-02-28T15:15:48;6.32;;;3.10;;
66112;SDS011;52893;52.870;5.822;2023-02-28T15:18:26;5.63;;;2.80;;
66112;SDS011;52893;52.870;5.822;2023-02-28T15:21:03;5.28;;;1.85;;
66112;SDS011;52893;52.870;5.822;2023-02-28T15:23:33;4.93;;;3.05;;
66112;SDS011;52893;52.870;5.822;2023-02-28T15:26:03;4.00;;;3.03;;
66112;SDS011;52893;52.870;5.822;2023-02-28T15:28:31;8.05;;;4.75;;